createdAt,value
2022-09-11T00:00:57.543Z,6.13
2022-09-11T00:03:30.065Z,5.83
2022-09-11T00:05:58.204Z,5.97
2022-09-11T00:08:27.535Z,6.37
2022-09-11T00:10:55.839Z,6.30
2022-09-11T00:13:28.279Z,5.97
2022-09-11T00:15:56.141Z,6.43
2022-09-11T00:18:25.809Z,6.07
2022-09-11T00:20:54.522Z,6.60
2022-09-11T00:23:27.259Z,6.87
2022-09-11T00:25:55.082Z,6.80
2022-09-11T00:28:24.052Z,7.10
2022-09-11T00:31:00.766Z,6.70
2022-09-11T00:33:29.162Z,6.93
2022-09-11T00:35:59.036Z,7.73
2022-09-11T00:38:28.273Z,7.63
2022-09-11T00:40:57.786Z,7.27
2022-09-11T00:43:26.122Z,7.93
2022-09-11T00:45:56.601Z,7.53
2022-09-11T00:48:26.573Z,7.27
2022-09-11T00:50:55.922Z,6.80
2022-09-11T00:53:26.468Z,6.13
2022-09-11T00:55:55.647Z,6.80
2022-09-11T00:58:28.099Z,6.90
2022-09-11T01:00:57.149Z,6.77
2022-09-11T01:03:27.022Z,6.70
2022-09-11T01:05:55.533Z,6.70
2022-09-11T01:08:23.313Z,6.20
2022-09-11T01:11:02.457Z,6.63
2022-09-11T01:13:34.382Z,6.50
2022-09-11T01:16:07.083Z,6.77
2022-09-11T01:18:48.501Z,6.67
2022-09-11T01:21:23.318Z,6.10
2022-09-11T01:24:03.300Z,6.20
2022-09-11T01:26:40.197Z,6.37
2022-09-11T01:29:13.699Z,6.37
2022-09-11T01:31:45.504Z,6.63
2022-09-11T01:34:17.160Z,5.97
2022-09-11T01:36:47.234Z,6.90
2022-09-11T01:39:15.690Z,6.20
2022-09-11T01:41:46.809Z,6.90
2022-09-11T01:44:17.385Z,6.23
2022-09-11T01:46:46.722Z,6.40
2022-09-11T01:49:16.667Z,7.27
2022-09-11T01:51:47.766Z,6.97
2022-09-11T01:54:18.109Z,6.17
2022-09-11T01:56:48.154Z,6.70
2022-09-11T01:59:18.901Z,6.40
2022-09-11T02:01:52.324Z,6.37
2022-09-11T02:04:22.427Z,6.13
2022-09-11T02:06:52.631Z,6.37
2022-09-11T02:09:22.352Z,6.97
2022-09-11T02:11:52.171Z,6.87
2022-09-11T02:14:28.305Z,6.70
2022-09-11T02:17:01.275Z,6.73
2022-09-11T02:19:31.430Z,7.33
2022-09-11T02:21:59.313Z,7.03
2022-09-11T02:24:27.980Z,7.10
2022-09-11T02:26:58.340Z,6.67
2022-09-11T02:29:27.763Z,7.10
2022-09-11T02:31:55.829Z,7.33
2022-09-11T02:34:26.960Z,7.27
2022-09-11T02:37:03.396Z,7.00
2022-09-11T02:39:49.826Z,6.83
2022-09-11T02:42:24.881Z,7.10
2022-09-11T02:44:58.133Z,7.20
2022-09-11T02:47:35.769Z,7.50
2022-09-11T02:50:07.596Z,7.47
2022-09-11T02:52:43.782Z,8.53
2022-09-11T02:55:13.748Z,8.07
2022-09-11T02:57:45.660Z,7.83
2022-09-11T03:00:15.852Z,7.83
2022-09-11T03:02:44.276Z,8.07
2022-09-11T03:05:13.664Z,8.00
2022-09-11T03:07:41.383Z,8.73
2022-09-11T03:10:11.661Z,8.70
2022-09-11T03:12:39.943Z,8.67
2022-09-11T03:15:09.989Z,8.77
2022-09-11T03:17:41.586Z,9.40
2022-09-11T03:20:09.976Z,8.13
2022-09-11T03:22:38.029Z,8.10
2022-09-11T03:25:06.681Z,8.20
2022-09-11T03:27:34.636Z,9.37
2022-09-11T03:30:02.366Z,8.40
2022-09-11T03:32:31.065Z,8.13
2022-09-11T03:35:01.255Z,9.27
2022-09-11T03:37:29.770Z,9.23
2022-09-11T03:39:57.550Z,8.97
2022-09-11T03:42:25.299Z,9.30
2022-09-11T03:44:53.070Z,8.67
2022-09-11T03:47:22.212Z,9.23
2022-09-11T03:49:52.248Z,9.57
2022-09-11T03:52:23.240Z,9.43
2022-09-11T03:54:51.199Z,9.27
2022-09-11T03:57:19.712Z,9.13
2022-09-11T03:59:49.673Z,10.33
2022-09-11T04:02:18.623Z,9.43
2022-09-11T04:04:46.738Z,9.93
2022-09-11T04:07:14.484Z,9.57
2022-09-11T04:09:43.632Z,9.37
2022-09-11T04:12:11.928Z,9.40
2022-09-11T04:14:40.072Z,10.37
2022-09-11T04:17:08.301Z,9.53
2022-09-11T04:19:36.199Z,9.53
2022-09-11T04:22:04.047Z,9.80
2022-09-11T04:24:31.852Z,9.93
2022-09-11T04:27:01.397Z,10.40
2022-09-11T04:29:29.397Z,10.70
2022-09-11T04:31:57.804Z,10.57
2022-09-11T04:34:26.357Z,11.13
2022-09-11T04:36:55.625Z,11.07
2022-09-11T04:39:23.539Z,10.30
2022-09-11T04:41:51.307Z,10.67
2022-09-11T04:44:20.837Z,10.47
2022-09-11T04:46:48.822Z,10.90
2022-09-11T04:49:17.137Z,10.10
2022-09-11T04:51:45.712Z,9.63
2022-09-11T04:54:15.342Z,9.03
2022-09-11T04:56:43.339Z,8.63
2022-09-11T04:59:13.613Z,8.93
2022-09-11T05:01:44.275Z,9.40
2022-09-11T05:04:13.381Z,10.90
2022-09-11T05:06:41.371Z,7.93
2022-09-11T05:09:10.468Z,8.40
2022-09-11T05:11:39.463Z,8.67
2022-09-11T05:14:08.815Z,8.17
2022-09-11T05:16:37.447Z,8.50
2022-09-11T05:19:07.320Z,8.63
2022-09-11T05:21:35.088Z,10.13
2022-09-11T05:24:03.746Z,9.83
2022-09-11T05:26:31.995Z,11.07
2022-09-11T05:29:00.817Z,11.27
2022-09-11T05:31:29.945Z,11.00
2022-09-11T05:34:00.364Z,12.03
2022-09-11T05:36:31.138Z,10.40
2022-09-11T05:38:59.655Z,11.93
2022-09-11T05:41:27.486Z,10.40
2022-09-11T05:43:55.815Z,10.60
2022-09-11T05:46:23.587Z,11.80
2022-09-11T05:48:51.420Z,11.20
2022-09-11T05:51:21.884Z,11.50
2022-09-11T05:53:53.360Z,11.30
2022-09-11T05:56:22.462Z,11.50
2022-09-11T05:58:51.871Z,10.80
2022-09-11T06:01:21.000Z,9.90
2022-09-11T06:03:49.565Z,11.50
2022-09-11T06:06:18.275Z,12.03
2022-09-11T06:08:48.174Z,10.67
2022-09-11T06:11:19.075Z,11.93
2022-09-11T06:13:47.616Z,11.30
2022-09-11T06:16:18.684Z,11.30
2022-09-11T06:18:49.775Z,10.70
2022-09-11T06:21:20.483Z,11.30
2022-09-11T06:23:49.068Z,10.33
2022-09-11T06:26:19.605Z,12.30
2022-09-11T06:28:48.386Z,10.77
2022-09-11T06:31:17.460Z,11.10
2022-09-11T06:33:45.599Z,11.10
2022-09-11T06:36:14.512Z,10.33
2022-09-11T06:38:42.561Z,10.67
2022-09-11T06:41:12.830Z,11.13
2022-09-11T06:43:42.926Z,12.10
2022-09-11T06:46:12.671Z,12.13
2022-09-11T06:48:40.768Z,11.13
2022-09-11T06:51:09.512Z,9.97
2022-09-11T06:53:37.464Z,10.90
2022-09-11T06:56:07.601Z,10.80
2022-09-11T06:58:35.390Z,11.00
2022-09-11T07:01:05.617Z,11.93
2022-09-11T07:03:33.990Z,11.53
2022-09-11T07:06:02.506Z,10.97
2022-09-11T07:08:30.531Z,9.50
2022-09-11T07:11:03.885Z,8.53
2022-09-11T07:13:37.212Z,9.40
2022-09-11T07:16:08.188Z,7.83
2022-09-11T07:18:36.383Z,8.03
2022-09-11T07:21:06.762Z,8.17
2022-09-11T07:23:36.037Z,7.57
2022-09-11T07:26:05.198Z,7.72
2022-09-11T07:28:32.937Z,7.30
2022-09-11T07:31:11.240Z,7.07
2022-09-11T07:33:39.522Z,6.80
2022-09-11T07:36:12.329Z,6.32
2022-09-11T07:38:41.219Z,6.43
2022-09-11T07:41:09.528Z,6.60
2022-09-11T07:43:37.353Z,6.43
2022-09-11T07:46:05.738Z,6.30
2022-09-11T07:48:35.376Z,5.88
2022-09-11T07:51:04.500Z,5.77
2022-09-11T07:53:33.625Z,4.93
2022-09-11T07:56:03.942Z,5.72
2022-09-11T07:58:34.174Z,5.30
2022-09-11T08:01:02.590Z,5.90
2022-09-11T08:03:31.760Z,5.57
2022-09-11T08:06:01.371Z,6.20
2022-09-11T08:08:29.831Z,6.73
2022-09-11T08:11:00.256Z,6.97
2022-09-11T08:13:28.288Z,6.70
2022-09-11T08:15:57.370Z,6.43
2022-09-11T08:18:25.652Z,8.93
2022-09-11T08:20:55.552Z,9.93
2022-09-11T08:23:25.241Z,7.45
2022-09-11T08:25:54.050Z,7.07
2022-09-11T08:28:21.819Z,7.85
2022-09-11T08:30:50.080Z,8.80
2022-09-11T08:33:19.619Z,6.55
2022-09-11T08:35:47.399Z,7.07
2022-09-11T08:38:15.149Z,6.88
2022-09-11T08:40:44.649Z,8.20
2022-09-11T08:43:16.178Z,9.40
2022-09-11T08:45:44.052Z,8.75
2022-09-11T08:48:14.130Z,7.63
2022-09-11T08:50:43.264Z,7.82
2022-09-11T08:53:15.282Z,8.52
2022-09-11T08:55:48.002Z,8.75
2022-09-11T08:58:19.038Z,8.68
2022-09-11T09:00:51.293Z,8.25
2022-09-11T09:03:41.972Z,8.98
2022-09-11T09:06:25.978Z,8.75
2022-09-11T09:08:58.678Z,8.35
2022-09-11T09:11:32.287Z,8.82
2022-09-11T09:14:05.954Z,8.75
2022-09-11T09:16:41.392Z,7.45
2022-09-11T09:19:14.280Z,7.78
2022-09-11T09:21:44.070Z,7.97
2022-09-11T09:24:19.437Z,8.18
2022-09-11T09:26:51.122Z,7.93
2022-09-11T09:29:23.441Z,7.97
2022-09-11T09:31:53.695Z,7.93
2022-09-11T09:34:21.979Z,7.65
2022-09-11T09:36:53.802Z,8.48
2022-09-11T09:39:23.094Z,8.38
2022-09-11T09:42:05.464Z,6.60
2022-09-11T09:44:39.321Z,8.00
2022-09-11T09:47:12.192Z,8.05
2022-09-11T09:49:40.284Z,7.20
2022-09-11T09:52:14.932Z,6.15
2022-09-11T09:54:42.843Z,7.15
2022-09-11T09:57:12.810Z,8.65
2022-09-11T09:59:42.424Z,16.02
2022-09-11T10:02:10.521Z,8.63
2022-09-11T10:04:38.221Z,8.30
2022-09-11T10:07:10.786Z,7.72
2022-09-11T10:09:46.784Z,8.13
2022-09-11T10:12:18.276Z,5.97
2022-09-11T10:14:54.911Z,6.05
2022-09-11T10:17:23.917Z,6.90
2022-09-11T10:19:52.913Z,6.10
2022-09-11T10:22:25.281Z,6.80
2022-09-11T10:25:13.769Z,6.68
2022-09-11T10:27:45.569Z,5.93
2022-09-11T10:30:25.763Z,7.57
2022-09-11T10:32:53.805Z,6.13
2022-09-11T10:35:22.035Z,6.72
2022-09-11T10:38:00.867Z,6.60
2022-09-11T10:40:28.901Z,5.88
2022-09-11T10:42:58.022Z,6.63
2022-09-11T10:45:25.968Z,7.32
2022-09-11T10:47:53.828Z,6.72
2022-09-11T10:50:23.317Z,7.30
2022-09-11T10:52:56.710Z,6.47
2022-09-11T10:55:25.206Z,6.18
2022-09-11T10:57:54.219Z,6.47
2022-09-11T11:00:24.339Z,6.30
2022-09-11T11:02:53.864Z,5.72
2022-09-11T11:05:24.703Z,4.95
2022-09-11T11:08:04.337Z,6.13
2022-09-11T11:10:40.111Z,6.03
2022-09-11T11:13:15.990Z,5.90
2022-09-11T11:18:47.330Z,5.95
2022-09-11T11:21:20.600Z,6.28
2022-09-11T11:23:56.712Z,6.47
2022-09-11T11:26:36.817Z,6.78
2022-09-11T11:29:15.153Z,6.70
2022-09-11T11:31:48.905Z,5.60
2022-09-11T11:34:24.206Z,5.53
2022-09-11T11:36:54.679Z,6.60
2022-09-11T11:39:25.504Z,7.88
2022-09-11T11:42:01.460Z,6.65
2022-09-11T11:44:33.100Z,5.13
2022-09-11T11:47:05.432Z,5.28
2022-09-11T11:49:41.675Z,6.00
2022-09-11T11:52:14.628Z,5.35
2022-09-11T11:54:45.707Z,6.03
2022-09-11T11:57:16.810Z,6.07
2022-09-11T11:59:48.539Z,6.38
2022-09-11T12:02:18.987Z,5.50
2022-09-11T12:04:51.078Z,5.55
2022-09-11T12:07:21.667Z,5.15
2022-09-11T12:09:50.455Z,5.70
2022-09-11T12:12:19.467Z,5.50
2022-09-11T12:14:51.681Z,5.85
2022-09-11T12:17:21.379Z,5.65
2022-09-11T12:20:08.207Z,5.50
2022-09-11T12:22:40.665Z,5.38
2022-09-11T12:25:30.381Z,5.68
2022-09-11T12:28:11.489Z,6.15
2022-09-11T12:30:59.384Z,6.18
2022-09-11T12:33:47.478Z,6.40
2022-09-11T12:36:17.837Z,5.70
2022-09-11T12:38:49.788Z,6.25
2022-09-11T12:41:23.921Z,5.30
2022-09-11T12:43:52.045Z,6.03
2022-09-11T12:46:40.546Z,6.10
2022-09-11T12:49:22.063Z,6.25
2022-09-11T12:51:52.948Z,5.72
2022-09-11T12:54:24.808Z,5.68
2022-09-11T12:56:54.094Z,6.05
2022-09-11T12:59:25.722Z,5.28
2022-09-11T13:01:54.039Z,5.70
2022-09-11T13:04:23.166Z,5.03
2022-09-11T13:06:52.979Z,5.65
2022-09-11T13:09:23.269Z,5.57
2022-09-11T13:11:52.181Z,5.90
2022-09-11T13:14:38.467Z,4.53
2022-09-11T13:17:14.879Z,5.82
2022-09-11T13:19:43.041Z,5.65
2022-09-11T13:22:24.827Z,5.70
2022-09-11T13:25:06.449Z,5.57
2022-09-11T13:27:39.184Z,5.63
2022-09-11T13:30:09.094Z,5.45
2022-09-11T13:32:37.139Z,5.72
2022-09-11T13:35:08.168Z,5.35
2022-09-11T13:37:38.491Z,5.43
2022-09-11T13:40:15.710Z,5.60
2022-09-11T13:42:43.419Z,5.35
2022-09-11T13:45:15.905Z,6.07
2022-09-11T13:47:44.256Z,5.15
2022-09-11T13:50:14.072Z,4.82
2022-09-11T13:52:43.375Z,5.20
2022-09-11T13:55:14.189Z,5.10
2022-09-11T13:57:51.859Z,5.63
2022-09-11T14:00:34.417Z,5.00
2022-09-11T14:03:02.588Z,5.38
2022-09-11T14:05:31.917Z,5.63
2022-09-11T14:08:02.039Z,4.70
2022-09-11T14:10:32.842Z,4.85
2022-09-11T14:13:06.318Z,4.55
2022-09-11T14:15:37.972Z,4.32
2022-09-11T14:18:07.844Z,4.55
2022-09-11T14:20:40.996Z,4.70
2022-09-11T14:23:09.260Z,5.10
2022-09-11T14:25:38.660Z,4.65
2022-09-11T14:28:07.650Z,5.18
2022-09-11T14:30:37.629Z,4.00
2022-09-11T14:33:23.127Z,5.15
2022-09-11T14:35:51.581Z,4.45
2022-09-11T14:38:21.318Z,4.40
2022-09-11T14:40:55.203Z,4.95
2022-09-11T14:43:26.351Z,4.72
2022-09-11T14:45:54.784Z,4.55
2022-09-11T14:48:23.025Z,4.60
2022-09-11T14:50:50.947Z,4.22
2022-09-11T14:53:19.911Z,4.85
2022-09-11T14:55:47.588Z,3.95
2022-09-11T14:58:17.219Z,4.82
2022-09-11T15:00:45.573Z,4.43
2022-09-11T15:03:14.665Z,3.78
2022-09-11T15:05:44.016Z,4.13
2022-09-11T15:08:12.129Z,4.93
2022-09-11T15:10:40.081Z,4.07
2022-09-11T15:13:07.842Z,4.05
2022-09-11T15:15:39.258Z,3.75
2022-09-11T15:18:07.281Z,4.13
2022-09-11T15:20:38.034Z,4.25
2022-09-11T15:23:06.475Z,4.60
2022-09-11T15:25:34.230Z,5.00
2022-09-11T15:28:02.099Z,4.55
2022-09-11T15:30:29.890Z,4.47
2022-09-11T15:32:59.051Z,4.47
2022-09-11T15:35:32.151Z,4.03
2022-09-11T15:38:00.763Z,4.18
2022-09-11T15:40:29.658Z,4.90
2022-09-11T15:42:57.730Z,4.90
2022-09-11T15:45:26.211Z,4.07
2022-09-11T15:47:54.137Z,4.70
2022-09-11T15:50:28.403Z,4.10
2022-09-11T15:52:56.071Z,4.70
2022-09-11T15:55:26.635Z,4.40
2022-09-11T15:57:54.385Z,2.47
2022-09-11T16:00:22.341Z,2.73
2022-09-11T16:02:52.595Z,2.47
2022-09-11T16:05:23.275Z,2.40
2022-09-11T16:07:52.878Z,2.30
2022-09-11T16:10:21.120Z,2.97
2022-09-11T16:12:48.955Z,2.30
2022-09-11T16:15:16.913Z,2.50
2022-09-11T16:17:45.030Z,2.90
2022-09-11T16:20:15.420Z,3.67
2022-09-11T16:22:44.590Z,4.00
2022-09-11T16:25:13.986Z,4.00
2022-09-11T16:27:44.018Z,4.53
2022-09-11T16:30:42.065Z,5.20
2022-09-11T16:33:02.537Z,5.53
2022-09-11T16:35:32.186Z,6.57
2022-09-11T16:38:00.878Z,7.33
2022-09-11T16:40:31.363Z,7.80
2022-09-11T16:42:59.179Z,9.27
2022-09-11T16:45:27.563Z,9.27
2022-09-11T16:47:55.361Z,8.87
2022-09-11T16:50:24.449Z,7.60
2022-09-11T16:52:53.430Z,7.60
2022-09-11T16:55:22.189Z,7.63
2022-09-11T16:57:52.118Z,6.93
2022-09-11T17:00:19.728Z,8.50
2022-09-11T17:02:47.455Z,11.67
2022-09-11T17:05:17.644Z,11.23
2022-09-11T17:07:45.285Z,8.30
2022-09-11T17:10:13.209Z,6.63
2022-09-11T17:12:40.967Z,7.83
2022-09-11T17:15:11.851Z,5.77
2022-09-11T17:17:39.767Z,5.90
2022-09-11T17:20:11.827Z,5.77
2022-09-11T17:22:39.851Z,5.37
2022-09-11T17:25:08.272Z,5.73
2022-09-11T17:27:37.180Z,5.03
2022-09-11T17:30:05.251Z,5.40
2022-09-11T17:32:34.356Z,5.07
2022-09-11T17:35:04.131Z,4.37
2022-09-11T17:37:31.799Z,4.87
2022-09-11T17:39:59.829Z,5.03
2022-09-11T17:42:28.115Z,4.73
2022-09-11T17:44:56.510Z,4.87
2022-09-11T17:47:24.224Z,4.40
2022-09-11T17:49:53.887Z,5.10
2022-09-11T17:52:21.687Z,4.80
2022-09-11T17:54:49.310Z,4.57
2022-09-11T17:57:17.908Z,4.93
2022-09-11T17:59:45.866Z,4.97
2022-09-11T18:02:15.139Z,4.30
2022-09-11T18:04:44.695Z,5.23
2022-09-11T18:07:14.603Z,5.00
2022-09-11T18:09:42.651Z,4.90
2022-09-11T18:12:11.417Z,4.67
2022-09-11T18:14:39.598Z,4.73
2022-09-11T18:17:07.824Z,5.40
2022-09-11T18:19:38.923Z,5.40
2022-09-11T18:22:09.710Z,5.30
2022-09-11T18:24:40.028Z,5.47
2022-09-11T18:27:09.814Z,5.50
2022-09-11T18:29:39.920Z,5.27
2022-09-11T18:32:10.168Z,6.30
2022-09-11T18:34:38.434Z,6.23
2022-09-11T18:37:07.381Z,5.73
2022-09-11T18:39:35.456Z,5.63
2022-09-11T18:42:06.368Z,7.20
2022-09-11T18:44:34.377Z,6.10
2022-09-11T18:47:02.357Z,6.30
2022-09-11T18:49:30.661Z,6.63
2022-09-11T18:52:00.447Z,5.47
2022-09-11T18:54:30.266Z,5.13
2022-09-11T18:57:00.116Z,6.07
2022-09-11T18:59:30.164Z,5.77
2022-09-11T19:02:00.129Z,5.00
2022-09-11T19:04:29.066Z,4.73
2022-09-11T19:06:57.035Z,5.17
2022-09-11T19:09:24.883Z,4.53
2022-09-11T19:11:54.861Z,4.47
2022-09-11T19:14:24.257Z,4.60
2022-09-11T19:16:56.090Z,4.80
2022-09-11T19:19:24.038Z,5.67
2022-09-11T19:21:51.713Z,5.03
2022-09-11T19:24:19.543Z,4.57
2022-09-11T19:26:47.880Z,5.00
2022-09-11T19:29:16.159Z,5.10
2022-09-11T19:31:44.360Z,5.13
2022-09-11T19:34:13.903Z,4.90
2022-09-11T19:36:42.392Z,4.83
2022-09-11T19:39:11.520Z,4.60
2022-09-11T19:41:40.028Z,5.40
2022-09-11T19:44:09.118Z,4.80
2022-09-11T19:46:38.268Z,5.03
2022-09-11T19:49:07.236Z,5.73
2022-09-11T19:51:37.849Z,5.37
2022-09-11T19:54:06.537Z,5.57
2022-09-11T19:56:35.448Z,5.33
2022-09-11T19:59:03.766Z,5.37
2022-09-11T20:01:32.347Z,4.67
2022-09-11T20:04:00.967Z,4.90
2022-09-11T20:06:30.752Z,5.90
2022-09-11T20:09:27.278Z,5.60
2022-09-11T20:11:49.301Z,5.30
2022-09-11T20:14:17.286Z,5.47
2022-09-11T20:16:45.533Z,5.27
2022-09-11T20:19:15.045Z,6.10
2022-09-11T20:21:43.042Z,5.20
2022-09-11T20:24:12.497Z,5.60
2022-09-11T20:26:40.285Z,6.33
2022-09-11T20:29:09.121Z,6.23
2022-09-11T20:31:46.309Z,6.53
2022-09-11T20:34:16.700Z,6.23
2022-09-11T20:36:44.394Z,6.07
2022-09-11T20:39:13.917Z,5.57
2022-09-11T20:41:42.032Z,5.30
2022-09-11T20:44:09.763Z,5.57
2022-09-11T20:46:37.651Z,5.40
2022-09-11T20:49:06.789Z,5.50
2022-09-11T20:51:34.714Z,6.83
2022-09-11T20:54:03.303Z,5.40
2022-09-11T20:56:32.680Z,5.40
2022-09-11T20:59:00.970Z,4.80
2022-09-11T21:01:32.545Z,5.40
2022-09-11T21:04:01.040Z,5.17
2022-09-11T21:06:30.268Z,5.53
2022-09-11T21:08:59.310Z,5.10
2022-09-11T21:11:29.004Z,5.37
2022-09-11T21:13:58.071Z,4.50
2022-09-11T21:16:26.112Z,4.90
2022-09-11T21:18:55.796Z,5.00
2022-09-11T21:21:24.967Z,4.53
2022-09-11T21:23:55.145Z,4.70
2022-09-11T21:26:23.262Z,4.60
2022-09-11T21:28:51.014Z,4.27
2022-09-11T21:31:20.451Z,4.30
2022-09-11T21:33:48.903Z,3.77
2022-09-11T21:36:16.853Z,3.80
2022-09-11T21:38:44.888Z,4.73
2022-09-11T21:41:15.064Z,4.27
2022-09-11T21:43:43.419Z,4.17
2022-09-11T21:46:11.559Z,5.20
2022-09-11T21:48:41.780Z,4.47
2022-09-11T21:51:12.332Z,4.67
2022-09-11T21:53:40.601Z,4.43
2022-09-11T21:56:16.284Z,4.57
2022-09-11T21:58:44.607Z,4.77
2022-09-11T22:01:13.827Z,4.97
2022-09-11T22:03:43.116Z,5.77
2022-09-11T22:06:11.712Z,4.70
2022-09-11T22:08:41.029Z,5.13
2022-09-11T22:11:09.124Z,4.97
2022-09-11T22:13:37.139Z,4.47
2022-09-11T22:16:05.825Z,5.50
2022-09-11T22:18:34.231Z,4.60
2022-09-11T22:21:03.508Z,4.37
2022-09-11T22:23:31.394Z,4.70
2022-09-11T22:26:00.255Z,4.60
2022-09-11T22:28:28.448Z,4.43
2022-09-11T22:30:56.359Z,4.47
2022-09-11T22:33:24.383Z,4.50
2022-09-11T22:35:52.378Z,4.60
2022-09-11T22:38:21.526Z,4.50
2022-09-11T22:40:53.061Z,4.40
2022-09-11T22:43:21.049Z,4.73
2022-09-11T22:45:52.406Z,3.97
2022-09-11T22:48:20.545Z,4.17
2022-09-11T22:50:49.638Z,4.60
2022-09-11T22:53:17.692Z,4.17
2022-09-11T22:55:47.235Z,5.40
2022-09-11T22:58:15.309Z,4.00
2022-09-11T23:00:43.857Z,4.70
2022-09-11T23:03:11.810Z,3.90
2022-09-11T23:05:57.079Z,4.03
2022-09-11T23:08:28.306Z,4.00
2022-09-11T23:11:00.502Z,4.23
2022-09-11T23:13:30.082Z,3.93
2022-09-11T23:15:57.808Z,3.83
2022-09-11T23:18:27.490Z,4.13
2022-09-11T23:20:55.725Z,3.77
2022-09-11T23:23:23.417Z,4.17
2022-09-11T23:25:51.861Z,3.60
2022-09-11T23:28:23.167Z,4.40
2022-09-11T23:30:50.874Z,4.73
2022-09-11T23:33:18.650Z,4.20
2022-09-11T23:35:46.413Z,4.47
2022-09-11T23:38:14.557Z,4.13
2022-09-11T23:40:42.455Z,4.73
2022-09-11T23:43:10.208Z,3.90
2022-09-11T23:45:40.957Z,4.03
2022-09-11T23:48:11.079Z,3.93
2022-09-11T23:50:39.314Z,3.90
2022-09-11T23:53:07.088Z,3.70
2022-09-11T23:55:35.153Z,3.97
2022-09-11T23:58:04.199Z,4.50
